sensor_id;sensor_type;location;lat;lon;timestamp;P1;durP1;ratioP1;P2;durP2;ratioP2
68942;SDS011;60852;52.190;4.422;2022-10-31T00:03:49;3.36;;;3.33;;
68942;SDS011;60852;52.190;4.422;2022-10-31T00:06:15;3.75;;;3.75;;
68942;SDS011;60852;52.190;4.422;2022-10-31T00:08:44;3.38;;;3.38;;
68942;SDS011;60852;52.190;4.422;2022-10-31T00:11:16;3.31;;;3.31;;
68942;SDS011;60852;52.190;4.422;2022-10-31T00:13:41;3.38;;;3.38;;
68942;SDS011;60852;52.190;4.422;2022-10-31T00:16:13;3.28;;;3.28;;
68942;SDS011;60852;52.190;4.422;2022-10-31T00:18:49;3.29;;;3.29;;
68942;SDS011;60852;52.190;4.422;2022-10-31T00:21:19;3.09;;;3.09;;
68942;SDS011;60852;52.190;4.422;2022-10-31T00:23:45;3.03;;;3.03;;
68942;SDS011;60852;52.190;4.422;2022-10-31T00:26:11;3.31;;;3.31;;
68942;SDS011;60852;52.190;4.422;2022-10-31T00:28:36;3.57;;;3.57;;
68942;SDS011;60852;52.190;4.422;2022-10-31T00:31:03;3.30;;;3.30;;
68942;SDS011;60852;52.190;4.422;2022-10-31T00:33:32;3.18;;;3.18;;
68942;SDS011;60852;52.190;4.422;2022-10-31T00:35:59;3.51;;;3.51;;
68942;SDS011;60852;52.190;4.422;2022-10-31T00:38:25;3.74;;;3.74;;
68942;SDS011;60852;52.190;4.422;2022-10-31T00:40:50;3.21;;;3.21;;
68942;SDS011;60852;52.190;4.422;2022-10-31T00:43:16;3.14;;;3.14;;
68942;SDS011;60852;52.190;4.422;2022-10-31T00:45:42;3.49;;;3.49;;
68942;SDS011;60852;52.190;4.422;2022-10-31T00:48:08;3.38;;;3.38;;
68942;SDS011;60852;52.190;4.422;2022-10-31T00:50:35;3.58;;;3.58;;
68942;SDS011;60852;52.190;4.422;2022-10-31T00:53:00;3.66;;;3.66;;
68942;SDS011;60852;52.190;4.422;2022-10-31T00:55:26;3.69;;;3.69;;
68942;SDS011;60852;52.190;4.422;2022-10-31T00:57:52;3.67;;;3.67;;
68942;SDS011;60852;52.190;4.422;2022-10-31T01:00:17;3.52;;;3.52;;
68942;SDS011;60852;52.190;4.422;2022-10-31T01:02:43;3.54;;;3.54;;
68942;SDS011;60852;52.190;4.422;2022-10-31T01:05:08;3.50;;;3.50;;
68942;SDS011;60852;52.190;4.422;2022-10-31T01:07:37;3.40;;;3.40;;
68942;SDS011;60852;52.190;4.422;2022-10-31T01:10:04;3.42;;;3.42;;
68942;SDS011;60852;52.190;4.422;2022-10-31T01:12:35;3.32;;;3.32;;
68942;SDS011;60852;52.190;4.422;2022-10-31T01:15:09;3.12;;;3.12;;
68942;SDS011;60852;52.190;4.422;2022-10-31T01:17:36;3.48;;;3.48;;
68942;SDS011;60852;52.190;4.422;2022-10-31T01:20:03;3.61;;;3.61;;
68942;SDS011;60852;52.190;4.422;2022-10-31T01:22:29;3.57;;;3.57;;
68942;SDS011;60852;52.190;4.422;2022-10-31T01:24:55;3.80;;;3.80;;
68942;SDS011;60852;52.190;4.422;2022-10-31T01:27:20;3.57;;;3.57;;
68942;SDS011;60852;52.190;4.422;2022-10-31T01:29:45;3.56;;;3.56;;
68942;SDS011;60852;52.190;4.422;2022-10-31T01:32:11;3.64;;;3.64;;
68942;SDS011;60852;52.190;4.422;2022-10-31T01:34:36;3.93;;;3.93;;
68942;SDS011;60852;52.190;4.422;2022-10-31T01:37:02;3.29;;;3.29;;
68942;SDS011;60852;52.190;4.422;2022-10-31T01:39:27;3.43;;;3.43;;
68942;SDS011;60852;52.190;4.422;2022-10-31T01:41:53;3.58;;;3.58;;
68942;SDS011;60852;52.190;4.422;2022-10-31T01:46:48;3.66;;;3.66;;
68942;SDS011;60852;52.190;4.422;2022-10-31T01:49:20;3.52;;;3.52;;
68942;SDS011;60852;52.190;4.422;2022-10-31T01:51:55;3.41;;;3.41;;
68942;SDS011;60852;52.190;4.422;2022-10-31T01:54:28;3.57;;;3.57;;
68942;SDS011;60852;52.190;4.422;2022-10-31T01:56:59;3.90;;;3.90;;
68942;SDS011;60852;52.190;4.422;2022-10-31T01:59:28;3.69;;;3.69;;
68942;SDS011;60852;52.190;4.422;2022-10-31T02:01:58;3.76;;;3.76;;
68942;SDS011;60852;52.190;4.422;2022-10-31T02:04:24;3.75;;;3.75;;
68942;SDS011;60852;52.190;4.422;2022-10-31T02:06:55;3.89;;;3.89;;
68942;SDS011;60852;52.190;4.422;2022-10-31T02:09:27;3.95;;;3.95;;
68942;SDS011;60852;52.190;4.422;2022-10-31T02:11:57;3.91;;;3.91;;
68942;SDS011;60852;52.190;4.422;2022-10-31T02:14:25;4.04;;;4.04;;
68942;SDS011;60852;52.190;4.422;2022-10-31T02:16:54;4.05;;;4.05;;
68942;SDS011;60852;52.190;4.422;2022-10-31T02:19:34;4.07;;;4.07;;
68942;SDS011;60852;52.190;4.422;2022-10-31T02:22:26;4.31;;;4.31;;
68942;SDS011;60852;52.190;4.422;2022-10-31T02:27:52;4.19;;;4.19;;
68942;SDS011;60852;52.190;4.422;2022-10-31T02:33:13;4.77;;;4.77;;
68942;SDS011;60852;52.190;4.422;2022-10-31T02:36:03;5.17;;;5.17;;
68942;SDS011;60852;52.190;4.422;2022-10-31T02:41:37;5.60;;;5.60;;
68942;SDS011;60852;52.190;4.422;2022-10-31T02:49:24;5.54;;;5.54;;
68942;SDS011;60852;52.190;4.422;2022-10-31T02:51:56;5.51;;;5.51;;
68942;SDS011;60852;52.190;4.422;2022-10-31T02:54:24;5.68;;;5.68;;
68942;SDS011;60852;52.190;4.422;2022-10-31T02:56:52;5.90;;;5.90;;
68942;SDS011;60852;52.190;4.422;2022-10-31T02:59:31;6.10;;;6.10;;
68942;SDS011;60852;52.190;4.422;2022-10-31T03:07:42;6.18;;;6.18;;
68942;SDS011;60852;52.190;4.422;2022-10-31T03:12:56;6.43;;;6.43;;
68942;SDS011;60852;52.190;4.422;2022-10-31T03:15:33;6.58;;;6.58;;
68942;SDS011;60852;52.190;4.422;2022-10-31T03:18:07;6.82;;;6.82;;
68942;SDS011;60852;52.190;4.422;2022-10-31T03:20:38;6.92;;;6.92;;
68942;SDS011;60852;52.190;4.422;2022-10-31T03:23:10;7.36;;;7.36;;
68942;SDS011;60852;52.190;4.422;2022-10-31T03:25:40;7.26;;;7.26;;
68942;SDS011;60852;52.190;4.422;2022-10-31T03:28:07;7.06;;;7.06;;
68942;SDS011;60852;52.190;4.422;2022-10-31T03:30:37;7.25;;;7.25;;
68942;SDS011;60852;52.190;4.422;2022-10-31T03:33:08;6.68;;;6.68;;
68942;SDS011;60852;52.190;4.422;2022-10-31T03:35:41;7.18;;;7.18;;
68942;SDS011;60852;52.190;4.422;2022-10-31T03:38:11;7.34;;;7.34;;
68942;SDS011;60852;52.190;4.422;2022-10-31T03:40:40;7.91;;;7.84;;
68942;SDS011;60852;52.190;4.422;2022-10-31T03:43:11;7.58;;;7.58;;
68942;SDS011;60852;52.190;4.422;2022-10-31T03:45:45;7.61;;;7.61;;
68942;SDS011;60852;52.190;4.422;2022-10-31T03:48:12;7.40;;;7.40;;
68942;SDS011;60852;52.190;4.422;2022-10-31T03:50:54;8.16;;;8.16;;
68942;SDS011;60852;52.190;4.422;2022-10-31T03:53:34;7.45;;;7.45;;
68942;SDS011;60852;52.190;4.422;2022-10-31T03:58:42;8.33;;;8.33;;
68942;SDS011;60852;52.190;4.422;2022-10-31T04:01:21;8.01;;;8.01;;
68942;SDS011;60852;52.190;4.422;2022-10-31T04:03:51;7.99;;;7.99;;
68942;SDS011;60852;52.190;4.422;2022-10-31T04:06:18;8.32;;;8.32;;
68942;SDS011;60852;52.190;4.422;2022-10-31T04:08:57;8.27;;;8.27;;
68942;SDS011;60852;52.190;4.422;2022-10-31T04:11:29;9.01;;;9.01;;
68942;SDS011;60852;52.190;4.422;2022-10-31T04:14:00;8.66;;;8.66;;
68942;SDS011;60852;52.190;4.422;2022-10-31T04:16:29;8.71;;;8.71;;
68942;SDS011;60852;52.190;4.422;2022-10-31T04:18:55;9.17;;;9.17;;
68942;SDS011;60852;52.190;4.422;2022-10-31T04:21:26;9.18;;;9.18;;
68942;SDS011;60852;52.190;4.422;2022-10-31T04:23:53;9.08;;;9.08;;
68942;SDS011;60852;52.190;4.422;2022-10-31T04:26:19;9.47;;;9.47;;
68942;SDS011;60852;52.190;4.422;2022-10-31T04:28:44;9.21;;;9.21;;
68942;SDS011;60852;52.190;4.422;2022-10-31T04:31:10;9.15;;;9.15;;
68942;SDS011;60852;52.190;4.422;2022-10-31T04:33:37;9.01;;;9.01;;
68942;SDS011;60852;52.190;4.422;2022-10-31T04:36:03;9.46;;;9.46;;
68942;SDS011;60852;52.190;4.422;2022-10-31T04:38:29;9.11;;;9.11;;
68942;SDS011;60852;52.190;4.422;2022-10-31T04:40:55;9.34;;;9.34;;
68942;SDS011;60852;52.190;4.422;2022-10-31T04:43:21;8.96;;;8.96;;
68942;SDS011;60852;52.190;4.422;2022-10-31T04:45:46;9.03;;;9.03;;
68942;SDS011;60852;52.190;4.422;2022-10-31T04:48:12;8.65;;;8.65;;
68942;SDS011;60852;52.190;4.422;2022-10-31T04:50:37;8.94;;;8.94;;
68942;SDS011;60852;52.190;4.422;2022-10-31T04:53:03;9.16;;;9.16;;
68942;SDS011;60852;52.190;4.422;2022-10-31T04:55:28;9.05;;;9.05;;
68942;SDS011;60852;52.190;4.422;2022-10-31T04:57:54;9.22;;;9.22;;
68942;SDS011;60852;52.190;4.422;2022-10-31T05:00:20;9.42;;;9.42;;
68942;SDS011;60852;52.190;4.422;2022-10-31T05:02:50;9.56;;;9.55;;
68942;SDS011;60852;52.190;4.422;2022-10-31T05:05:19;9.25;;;9.25;;
68942;SDS011;60852;52.190;4.422;2022-10-31T05:07:47;9.52;;;9.49;;
68942;SDS011;60852;52.190;4.422;2022-10-31T05:10:15;9.32;;;9.30;;
68942;SDS011;60852;52.190;4.422;2022-10-31T05:12:53;9.17;;;9.17;;
68942;SDS011;60852;52.190;4.422;2022-10-31T05:15:21;9.42;;;9.42;;
68942;SDS011;60852;52.190;4.422;2022-10-31T05:17:48;9.08;;;9.08;;
68942;SDS011;60852;52.190;4.422;2022-10-31T05:20:14;9.68;;;9.68;;
68942;SDS011;60852;52.190;4.422;2022-10-31T05:22:42;9.68;;;9.68;;
68942;SDS011;60852;52.190;4.422;2022-10-31T05:25:08;10.12;;;10.12;;
68942;SDS011;60852;52.190;4.422;2022-10-31T05:27:34;9.91;;;9.91;;
68942;SDS011;60852;52.190;4.422;2022-10-31T05:29:59;10.04;;;10.04;;
68942;SDS011;60852;52.190;4.422;2022-10-31T05:32:25;10.99;;;10.99;;
68942;SDS011;60852;52.190;4.422;2022-10-31T05:34:50;10.77;;;10.77;;
68942;SDS011;60852;52.190;4.422;2022-10-31T05:37:15;11.45;;;11.45;;
68942;SDS011;60852;52.190;4.422;2022-10-31T05:39:41;11.58;;;11.58;;
68942;SDS011;60852;52.190;4.422;2022-10-31T05:42:06;11.69;;;11.64;;
68942;SDS011;60852;52.190;4.422;2022-10-31T05:44:32;11.62;;;11.54;;
68942;SDS011;60852;52.190;4.422;2022-10-31T05:46:57;11.63;;;11.63;;
68942;SDS011;60852;52.190;4.422;2022-10-31T05:49:22;11.88;;;11.88;;
68942;SDS011;60852;52.190;4.422;2022-10-31T05:51:48;11.63;;;11.63;;
68942;SDS011;60852;52.190;4.422;2022-10-31T05:54:13;12.48;;;12.46;;
68942;SDS011;60852;52.190;4.422;2022-10-31T05:56:39;12.49;;;12.47;;
68942;SDS011;60852;52.190;4.422;2022-10-31T05:59:04;12.20;;;12.09;;
68942;SDS011;60852;52.190;4.422;2022-10-31T06:01:30;12.88;;;12.68;;
68942;SDS011;60852;52.190;4.422;2022-10-31T06:03:55;12.66;;;12.65;;
68942;SDS011;60852;52.190;4.422;2022-10-31T06:06:20;12.85;;;12.85;;
68942;SDS011;60852;52.190;4.422;2022-10-31T06:08:46;13.50;;;13.25;;
68942;SDS011;60852;52.190;4.422;2022-10-31T06:11:11;17.79;;;17.61;;
68942;SDS011;60852;52.190;4.422;2022-10-31T06:13:37;22.32;;;22.24;;
68942;SDS011;60852;52.190;4.422;2022-10-31T06:16:02;24.05;;;24.05;;
68942;SDS011;60852;52.190;4.422;2022-10-31T06:18:28;24.49;;;24.49;;
68942;SDS011;60852;52.190;4.422;2022-10-31T06:20:53;19.22;;;19.22;;
68942;SDS011;60852;52.190;4.422;2022-10-31T06:23:19;16.57;;;16.46;;
68942;SDS011;60852;52.190;4.422;2022-10-31T06:25:48;15.68;;;15.59;;
68942;SDS011;60852;52.190;4.422;2022-10-31T06:28:14;16.11;;;16.08;;
68942;SDS011;60852;52.190;4.422;2022-10-31T06:30:39;16.55;;;16.51;;
68942;SDS011;60852;52.190;4.422;2022-10-31T06:33:05;16.78;;;16.78;;
68942;SDS011;60852;52.190;4.422;2022-10-31T06:35:30;16.27;;;16.27;;
68942;SDS011;60852;52.190;4.422;2022-10-31T06:37:57;16.61;;;16.41;;
68942;SDS011;60852;52.190;4.422;2022-10-31T06:40:23;16.28;;;15.90;;
68942;SDS011;60852;52.190;4.422;2022-10-31T06:42:58;17.02;;;16.82;;
68942;SDS011;60852;52.190;4.422;2022-10-31T06:45:25;17.09;;;16.91;;
68942;SDS011;60852;52.190;4.422;2022-10-31T06:47:52;16.42;;;16.28;;
68942;SDS011;60852;52.190;4.422;2022-10-31T06:50:19;16.16;;;16.13;;
68942;SDS011;60852;52.190;4.422;2022-10-31T06:52:55;16.67;;;16.50;;
68942;SDS011;60852;52.190;4.422;2022-10-31T06:55:23;16.36;;;16.34;;
68942;SDS011;60852;52.190;4.422;2022-10-31T06:57:53;15.59;;;15.59;;
68942;SDS011;60852;52.190;4.422;2022-10-31T07:00:21;16.02;;;15.94;;
68942;SDS011;60852;52.190;4.422;2022-10-31T07:05:25;18.19;;;18.19;;
68942;SDS011;60852;52.190;4.422;2022-10-31T07:07:52;18.36;;;18.31;;
68942;SDS011;60852;52.190;4.422;2022-10-31T07:10:22;18.37;;;18.19;;
68942;SDS011;60852;52.190;4.422;2022-10-31T07:12:53;17.25;;;17.11;;
68942;SDS011;60852;52.190;4.422;2022-10-31T07:15:20;17.14;;;16.61;;
68942;SDS011;60852;52.190;4.422;2022-10-31T07:17:45;16.11;;;16.04;;
68942;SDS011;60852;52.190;4.422;2022-10-31T07:20:10;17.07;;;17.06;;
68942;SDS011;60852;52.190;4.422;2022-10-31T07:22:36;17.49;;;17.49;;
68942;SDS011;60852;52.190;4.422;2022-10-31T07:25:02;16.82;;;16.67;;
68942;SDS011;60852;52.190;4.422;2022-10-31T07:27:28;16.48;;;16.42;;
68942;SDS011;60852;52.190;4.422;2022-10-31T07:29:53;16.13;;;16.12;;
68942;SDS011;60852;52.190;4.422;2022-10-31T07:32:19;15.84;;;15.83;;
68942;SDS011;60852;52.190;4.422;2022-10-31T07:34:44;15.97;;;15.97;;
68942;SDS011;60852;52.190;4.422;2022-10-31T07:37:10;16.20;;;16.19;;
68942;SDS011;60852;52.190;4.422;2022-10-31T07:39:35;16.21;;;16.15;;
68942;SDS011;60852;52.190;4.422;2022-10-31T07:42:01;16.91;;;16.87;;
68942;SDS011;60852;52.190;4.422;2022-10-31T07:44:26;16.82;;;16.82;;
68942;SDS011;60852;52.190;4.422;2022-10-31T07:46:52;16.76;;;16.76;;
68942;SDS011;60852;52.190;4.422;2022-10-31T07:49:17;16.88;;;16.78;;
68942;SDS011;60852;52.190;4.422;2022-10-31T07:51:43;18.27;;;18.23;;
68942;SDS011;60852;52.190;4.422;2022-10-31T07:54:08;18.17;;;18.14;;
68942;SDS011;60852;52.190;4.422;2022-10-31T07:56:34;18.78;;;18.67;;
68942;SDS011;60852;52.190;4.422;2022-10-31T07:58:59;18.85;;;18.81;;
68942;SDS011;60852;52.190;4.422;2022-10-31T08:01:25;18.27;;;18.25;;
68942;SDS011;60852;52.190;4.422;2022-10-31T08:03:50;18.05;;;18.05;;
68942;SDS011;60852;52.190;4.422;2022-10-31T08:06:16;18.44;;;18.44;;
68942;SDS011;60852;52.190;4.422;2022-10-31T08:08:41;19.23;;;19.10;;
68942;SDS011;60852;52.190;4.422;2022-10-31T08:11:07;20.00;;;20.00;;
68942;SDS011;60852;52.190;4.422;2022-10-31T08:13:32;19.76;;;19.76;;
68942;SDS011;60852;52.190;4.422;2022-10-31T08:15:58;19.98;;;19.97;;
68942;SDS011;60852;52.190;4.422;2022-10-31T08:18:28;20.03;;;20.03;;
68942;SDS011;60852;52.190;4.422;2022-10-31T08:20:54;20.55;;;20.54;;
68942;SDS011;60852;52.190;4.422;2022-10-31T08:23:20;20.34;;;20.23;;
68942;SDS011;60852;52.190;4.422;2022-10-31T08:25:46;20.54;;;20.52;;
68942;SDS011;60852;52.190;4.422;2022-10-31T08:28:13;20.78;;;20.74;;
68942;SDS011;60852;52.190;4.422;2022-10-31T08:30:39;20.32;;;20.19;;
68942;SDS011;60852;52.190;4.422;2022-10-31T08:33:10;20.52;;;20.38;;
68942;SDS011;60852;52.190;4.422;2022-10-31T08:35:38;19.74;;;19.62;;
68942;SDS011;60852;52.190;4.422;2022-10-31T08:38:04;20.57;;;20.27;;
68942;SDS011;60852;52.190;4.422;2022-10-31T08:40:32;19.42;;;19.42;;
68942;SDS011;60852;52.190;4.422;2022-10-31T08:42:59;20.27;;;20.26;;
68942;SDS011;60852;52.190;4.422;2022-10-31T08:45:30;19.74;;;19.74;;
68942;SDS011;60852;52.190;4.422;2022-10-31T08:47:58;19.42;;;19.34;;
68942;SDS011;60852;52.190;4.422;2022-10-31T08:50:25;18.67;;;18.62;;
68942;SDS011;60852;52.190;4.422;2022-10-31T08:52:52;19.05;;;19.03;;
68942;SDS011;60852;52.190;4.422;2022-10-31T08:55:17;20.23;;;19.97;;
68942;SDS011;60852;52.190;4.422;2022-10-31T08:57:43;19.88;;;19.88;;
68942;SDS011;60852;52.190;4.422;2022-10-31T09:00:08;20.14;;;19.95;;
68942;SDS011;60852;52.190;4.422;2022-10-31T09:02:34;19.63;;;19.47;;
68942;SDS011;60852;52.190;4.422;2022-10-31T09:05:00;20.27;;;20.06;;
68942;SDS011;60852;52.190;4.422;2022-10-31T09:07:25;20.32;;;19.97;;
68942;SDS011;60852;52.190;4.422;2022-10-31T09:09:51;20.17;;;19.93;;
68942;SDS011;60852;52.190;4.422;2022-10-31T09:12:16;20.18;;;19.97;;
68942;SDS011;60852;52.190;4.422;2022-10-31T09:14:42;20.77;;;20.32;;
68942;SDS011;60852;52.190;4.422;2022-10-31T09:17:07;20.72;;;20.51;;
68942;SDS011;60852;52.190;4.422;2022-10-31T09:19:33;20.15;;;19.95;;
68942;SDS011;60852;52.190;4.422;2022-10-31T09:21:58;20.46;;;20.28;;
68942;SDS011;60852;52.190;4.422;2022-10-31T09:24:23;20.04;;;19.87;;
68942;SDS011;60852;52.190;4.422;2022-10-31T09:26:49;20.45;;;20.28;;
68942;SDS011;60852;52.190;4.422;2022-10-31T09:29:14;20.93;;;20.54;;
68942;SDS011;60852;52.190;4.422;2022-10-31T09:31:40;20.91;;;20.61;;
68942;SDS011;60852;52.190;4.422;2022-10-31T09:34:05;19.86;;;19.78;;
68942;SDS011;60852;52.190;4.422;2022-10-31T09:36:30;20.18;;;19.86;;
68942;SDS011;60852;52.190;4.422;2022-10-31T09:38:56;19.06;;;18.88;;
68942;SDS011;60852;52.190;4.422;2022-10-31T09:41:28;19.80;;;19.51;;
68942;SDS011;60852;52.190;4.422;2022-10-31T09:47:16;18.51;;;18.25;;
68942;SDS011;60852;52.190;4.422;2022-10-31T09:50:14;18.68;;;18.33;;
68942;SDS011;60852;52.190;4.422;2022-10-31T09:53:02;17.56;;;17.36;;
68942;SDS011;60852;52.190;4.422;2022-10-31T09:55:44;18.26;;;18.20;;
68942;SDS011;60852;52.190;4.422;2022-10-31T09:58:20;18.32;;;17.96;;
68942;SDS011;60852;52.190;4.422;2022-10-31T10:00:50;18.72;;;18.27;;
68942;SDS011;60852;52.190;4.422;2022-10-31T10:03:22;18.62;;;18.49;;
68942;SDS011;60852;52.190;4.422;2022-10-31T10:06:03;18.56;;;18.39;;
68942;SDS011;60852;52.190;4.422;2022-10-31T10:08:45;17.90;;;17.68;;
68942;SDS011;60852;52.190;4.422;2022-10-31T10:16:15;17.86;;;17.71;;
68942;SDS011;60852;52.190;4.422;2022-10-31T10:27:41;16.89;;;16.84;;
68942;SDS011;60852;52.190;4.422;2022-10-31T10:32:44;16.83;;;16.83;;
68942;SDS011;60852;52.190;4.422;2022-10-31T10:35:22;16.97;;;16.86;;
68942;SDS011;60852;52.190;4.422;2022-10-31T10:37:50;17.22;;;17.00;;
68942;SDS011;60852;52.190;4.422;2022-10-31T10:40:27;17.81;;;17.47;;
68942;SDS011;60852;52.190;4.422;2022-10-31T10:45:44;17.56;;;17.52;;
68942;SDS011;60852;52.190;4.422;2022-10-31T10:51:18;17.70;;;17.61;;
68942;SDS011;60852;52.190;4.422;2022-10-31T10:56:42;16.26;;;16.26;;
68942;SDS011;60852;52.190;4.422;2022-10-31T10:59:19;15.09;;;15.04;;
68942;SDS011;60852;52.190;4.422;2022-10-31T11:01:48;14.58;;;14.57;;
68942;SDS011;60852;52.190;4.422;2022-10-31T11:06:59;15.19;;;15.03;;
68942;SDS011;60852;52.190;4.422;2022-10-31T11:09:25;16.12;;;16.08;;
68942;SDS011;60852;52.190;4.422;2022-10-31T11:11:51;16.68;;;16.51;;
68942;SDS011;60852;52.190;4.422;2022-10-31T11:14:18;16.77;;;16.61;;
68942;SDS011;60852;52.190;4.422;2022-10-31T11:16:46;16.77;;;16.77;;
68942;SDS011;60852;52.190;4.422;2022-10-31T11:19:19;17.52;;;17.52;;
68942;SDS011;60852;52.190;4.422;2022-10-31T11:21:47;18.42;;;18.12;;
68942;SDS011;60852;52.190;4.422;2022-10-31T11:24:16;19.82;;;19.43;;
68942;SDS011;60852;52.190;4.422;2022-10-31T11:26:44;19.25;;;19.21;;
68942;SDS011;60852;52.190;4.422;2022-10-31T11:29:25;20.28;;;19.87;;
68942;SDS011;60852;52.190;4.422;2022-10-31T11:31:56;20.88;;;20.60;;
68942;SDS011;60852;52.190;4.422;2022-10-31T11:34:35;20.01;;;19.95;;
68942;SDS011;60852;52.190;4.422;2022-10-31T11:37:12;20.35;;;19.91;;
68942;SDS011;60852;52.190;4.422;2022-10-31T11:39:43;19.62;;;19.46;;
68942;SDS011;60852;52.190;4.422;2022-10-31T11:42:18;21.08;;;20.78;;
68942;SDS011;60852;52.190;4.422;2022-10-31T11:44:47;20.32;;;20.25;;
68942;SDS011;60852;52.190;4.422;2022-10-31T11:47:15;21.00;;;20.93;;
68942;SDS011;60852;52.190;4.422;2022-10-31T11:49:45;20.76;;;20.70;;
68942;SDS011;60852;52.190;4.422;2022-10-31T11:54:45;21.48;;;21.27;;
68942;SDS011;60852;52.190;4.422;2022-10-31T11:57:33;21.69;;;21.17;;
68942;SDS011;60852;52.190;4.422;2022-10-31T12:00:20;21.84;;;21.62;;
68942;SDS011;60852;52.190;4.422;2022-10-31T12:02:48;21.76;;;21.63;;
68942;SDS011;60852;52.190;4.422;2022-10-31T12:05:18;23.22;;;23.03;;
68942;SDS011;60852;52.190;4.422;2022-10-31T12:07:50;20.76;;;20.67;;
68942;SDS011;60852;52.190;4.422;2022-10-31T12:10:15;21.34;;;21.20;;
68942;SDS011;60852;52.190;4.422;2022-10-31T12:12:54;20.53;;;20.11;;
68942;SDS011;60852;52.190;4.422;2022-10-31T12:15:50;20.72;;;20.51;;
68942;SDS011;60852;52.190;4.422;2022-10-31T12:24:56;21.71;;;21.20;;
68942;SDS011;60852;52.190;4.422;2022-10-31T12:30:03;22.07;;;21.34;;
68942;SDS011;60852;52.190;4.422;2022-10-31T12:38:18;21.62;;;21.43;;
68942;SDS011;60852;52.190;4.422;2022-10-31T12:40:59;23.40;;;22.92;;
68942;SDS011;60852;52.190;4.422;2022-10-31T12:46:00;24.24;;;23.84;;
68942;SDS011;60852;52.190;4.422;2022-10-31T12:48:46;24.95;;;24.48;;
68942;SDS011;60852;52.190;4.422;2022-10-31T12:57:02;26.21;;;25.80;;
68942;SDS011;60852;52.190;4.422;2022-10-31T12:59:57;26.62;;;25.99;;
68942;SDS011;60852;52.190;4.422;2022-10-31T13:05:51;27.03;;;26.50;;
68942;SDS011;60852;52.190;4.422;2022-10-31T13:08:24;27.27;;;26.74;;
68942;SDS011;60852;52.190;4.422;2022-10-31T13:16:17;26.79;;;26.38;;
68942;SDS011;60852;52.190;4.422;2022-10-31T13:18:48;27.54;;;27.10;;
68942;SDS011;60852;52.190;4.422;2022-10-31T13:24:19;29.39;;;28.68;;
68942;SDS011;60852;52.190;4.422;2022-10-31T13:26:52;29.10;;;28.54;;
68942;SDS011;60852;52.190;4.422;2022-10-31T13:29:28;29.69;;;28.93;;
68942;SDS011;60852;52.190;4.422;2022-10-31T13:31:59;31.30;;;30.06;;
68942;SDS011;60852;52.190;4.422;2022-10-31T13:34:30;30.50;;;29.90;;
68942;SDS011;60852;52.190;4.422;2022-10-31T13:37:12;31.49;;;30.68;;
68942;SDS011;60852;52.190;4.422;2022-10-31T13:45:27;29.72;;;29.10;;
68942;SDS011;60852;52.190;4.422;2022-10-31T13:47:57;28.61;;;27.90;;
68942;SDS011;60852;52.190;4.422;2022-10-31T13:50:43;30.14;;;29.38;;
68942;SDS011;60852;52.190;4.422;2022-10-31T13:53:37;30.31;;;29.73;;
68942;SDS011;60852;52.190;4.422;2022-10-31T13:56:05;30.79;;;30.41;;
68942;SDS011;60852;52.190;4.422;2022-10-31T13:58:42;30.23;;;29.57;;
68942;SDS011;60852;52.190;4.422;2022-10-31T14:01:30;33.40;;;32.42;;
68942;SDS011;60852;52.190;4.422;2022-10-31T14:03:59;31.82;;;31.07;;
68942;SDS011;60852;52.190;4.422;2022-10-31T14:09:37;34.57;;;33.44;;
68942;SDS011;60852;52.190;4.422;2022-10-31T14:13:03;32.59;;;31.78;;
68942;SDS011;60852;52.190;4.422;2022-10-31T14:17:55;35.83;;;34.81;;
68942;SDS011;60852;52.190;4.422;2022-10-31T14:22:57;34.70;;;33.59;;
68942;SDS011;60852;52.190;4.422;2022-10-31T14:25:32;33.56;;;32.74;;
68942;SDS011;60852;52.190;4.422;2022-10-31T14:28:01;32.82;;;32.03;;
68942;SDS011;60852;52.190;4.422;2022-10-31T14:30:50;35.45;;;34.60;;
68942;SDS011;60852;52.190;4.422;2022-10-31T14:33:18;35.75;;;34.99;;
68942;SDS011;60852;52.190;4.422;2022-10-31T14:38:35;37.85;;;36.40;;
68942;SDS011;60852;52.190;4.422;2022-10-31T14:43:49;35.21;;;34.87;;
68942;SDS011;60852;52.190;4.422;2022-10-31T14:46:22;35.04;;;34.37;;
68942;SDS011;60852;52.190;4.422;2022-10-31T14:51:59;35.73;;;34.87;;
68942;SDS011;60852;52.190;4.422;2022-10-31T14:54:33;34.75;;;34.14;;
68942;SDS011;60852;52.190;4.422;2022-10-31T14:57:15;34.56;;;33.85;;
68942;SDS011;60852;52.190;4.422;2022-10-31T15:00:03;33.45;;;32.75;;
68942;SDS011;60852;52.190;4.422;2022-10-31T15:02:41;33.25;;;32.53;;
68942;SDS011;60852;52.190;4.422;2022-10-31T15:05:14;34.02;;;32.92;;
68942;SDS011;60852;52.190;4.422;2022-10-31T15:07:51;35.07;;;34.14;;
68942;SDS011;60852;52.190;4.422;2022-10-31T15:10:20;33.77;;;33.00;;
68942;SDS011;60852;52.190;4.422;2022-10-31T15:12:51;36.36;;;35.82;;
68942;SDS011;60852;52.190;4.422;2022-10-31T15:15:24;36.34;;;35.73;;
68942;SDS011;60852;52.190;4.422;2022-10-31T15:17:53;34.58;;;33.96;;
68942;SDS011;60852;52.190;4.422;2022-10-31T15:20:22;34.31;;;33.69;;
68942;SDS011;60852;52.190;4.422;2022-10-31T15:22:51;35.00;;;34.28;;
68942;SDS011;60852;52.190;4.422;2022-10-31T15:25:21;35.23;;;34.80;;
68942;SDS011;60852;52.190;4.422;2022-10-31T15:27:49;36.07;;;35.25;;
68942;SDS011;60852;52.190;4.422;2022-10-31T15:30:20;36.10;;;35.12;;
68942;SDS011;60852;52.190;4.422;2022-10-31T15:32:48;35.20;;;34.21;;
68942;SDS011;60852;52.190;4.422;2022-10-31T15:35:24;33.54;;;32.88;;
68942;SDS011;60852;52.190;4.422;2022-10-31T15:37:52;33.44;;;32.48;;
68942;SDS011;60852;52.190;4.422;2022-10-31T15:40:19;34.33;;;33.47;;
68942;SDS011;60852;52.190;4.422;2022-10-31T15:42:49;33.52;;;32.43;;
68942;SDS011;60852;52.190;4.422;2022-10-31T15:45:19;31.88;;;31.02;;
68942;SDS011;60852;52.190;4.422;2022-10-31T15:50:39;33.04;;;32.22;;
68942;SDS011;60852;52.190;4.422;2022-10-31T15:53:33;33.30;;;32.25;;
68942;SDS011;60852;52.190;4.422;2022-10-31T15:55:59;32.04;;;30.76;;
68942;SDS011;60852;52.190;4.422;2022-10-31T15:58:32;32.18;;;31.19;;
68942;SDS011;60852;52.190;4.422;2022-10-31T16:01:02;32.06;;;31.34;;
68942;SDS011;60852;52.190;4.422;2022-10-31T16:03:31;32.44;;;31.67;;
68942;SDS011;60852;52.190;4.422;2022-10-31T16:05:59;31.90;;;31.19;;
68942;SDS011;60852;52.190;4.422;2022-10-31T16:10:57;31.99;;;31.15;;
68942;SDS011;60852;52.190;4.422;2022-10-31T16:13:29;32.32;;;31.31;;
68942;SDS011;60852;52.190;4.422;2022-10-31T16:15:59;32.08;;;31.44;;
68942;SDS011;60852;52.190;4.422;2022-10-31T16:18:27;33.69;;;32.91;;
68942;SDS011;60852;52.190;4.422;2022-10-31T16:21:00;32.58;;;31.82;;
68942;SDS011;60852;52.190;4.422;2022-10-31T16:23:26;32.81;;;32.08;;
68942;SDS011;60852;52.190;4.422;2022-10-31T16:25:53;32.02;;;31.45;;
68942;SDS011;60852;52.190;4.422;2022-10-31T16:28:23;33.19;;;32.38;;
68942;SDS011;60852;52.190;4.422;2022-10-31T16:30:51;33.81;;;32.84;;
68942;SDS011;60852;52.190;4.422;2022-10-31T16:39:09;31.17;;;30.63;;
68942;SDS011;60852;52.190;4.422;2022-10-31T16:41:39;32.36;;;31.58;;
68942;SDS011;60852;52.190;4.422;2022-10-31T16:44:14;32.04;;;31.55;;
68942;SDS011;60852;52.190;4.422;2022-10-31T16:47:08;31.51;;;30.92;;
68942;SDS011;60852;52.190;4.422;2022-10-31T16:49:38;31.27;;;30.40;;
68942;SDS011;60852;52.190;4.422;2022-10-31T16:52:03;31.77;;;31.11;;
68942;SDS011;60852;52.190;4.422;2022-10-31T16:54:29;30.69;;;30.05;;
68942;SDS011;60852;52.190;4.422;2022-10-31T16:56:55;31.56;;;30.73;;
68942;SDS011;60852;52.190;4.422;2022-10-31T16:59:24;31.60;;;30.81;;
68942;SDS011;60852;52.190;4.422;2022-10-31T17:01:49;30.16;;;29.56;;